sensor_id;sensor_type;location;lat;lon;timestamp;temperature;humidity
24678;DHT22;12800;53.094;8.778;2023-11-22T00:01:50;6.30;85.80
24678;DHT22;12800;53.094;8.778;2023-11-22T00:04:18;6.30;85.80
24678;DHT22;12800;53.094;8.778;2023-11-22T00:06:45;6.30;85.70
24678;DHT22;12800;53.094;8.778;2023-11-22T00:09:11;6.30;85.80
24678;DHT22;12800;53.094;8.778;2023-11-22T00:11:37;6.30;85.80
24678;DHT22;12800;53.094;8.778;2023-11-22T00:14:03;6.30;85.90
24678;DHT22;12800;53.094;8.778;2023-11-22T00:16:28;6.30;85.80
24678;DHT22;12800;53.094;8.778;2023-11-22T00:18:55;6.20;85.80
24678;DHT22;12800;53.094;8.778;2023-11-22T00:21:21;6.20;85.90
24678;DHT22;12800;53.094;8.778;2023-11-22T00:23:47;6.20;85.90
24678;DHT22;12800;53.094;8.778;2023-11-22T00:26:12;6.20;86.10
24678;DHT22;12800;53.094;8.778;2023-11-22T00:28:38;6.20;86.10
24678;DHT22;12800;53.094;8.778;2023-11-22T00:31:04;6.20;86.10
24678;DHT22;12800;53.094;8.778;2023-11-22T00:47:00;6.10;86.10
24678;DHT22;12800;53.094;8.778;2023-11-22T00:50:06;6.10;86.20
24678;DHT22;12800;53.094;8.778;2023-11-22T00:52:53;6.00;86.20
24678;DHT22;12800;53.094;8.778;2023-11-22T00:55:19;6.00;86.20
24678;DHT22;12800;53.094;8.778;2023-11-22T00:57:45;6.00;86.10
24678;DHT22;12800;53.094;8.778;2023-11-22T01:00:11;6.00;86.30
24678;DHT22;12800;53.094;8.778;2023-11-22T01:03:07;6.00;86.40
24678;DHT22;12800;53.094;8.778;2023-11-22T01:05:56;5.90;86.40
24678;DHT22;12800;53.094;8.778;2023-11-22T01:08:24;5.90;87.20
24678;DHT22;12800;53.094;8.778;2023-11-22T01:10:49;5.90;86.30
24678;DHT22;12800;53.094;8.778;2023-11-22T01:13:15;5.90;86.20
24678;DHT22;12800;53.094;8.778;2023-11-22T01:15:41;5.80;86.30
24678;DHT22;12800;53.094;8.778;2023-11-22T01:18:07;5.80;86.40
24678;DHT22;12800;53.094;8.778;2023-11-22T01:20:33;5.80;86.40
24678;DHT22;12800;53.094;8.778;2023-11-22T01:22:58;5.80;86.50
24678;DHT22;12800;53.094;8.778;2023-11-22T01:25:24;5.70;86.40
24678;DHT22;12800;53.094;8.778;2023-11-22T01:27:50;5.70;86.40
24678;DHT22;12800;53.094;8.778;2023-11-22T01:30:15;5.70;86.40
24678;DHT22;12800;53.094;8.778;2023-11-22T01:32:43;5.70;86.60
24678;DHT22;12800;53.094;8.778;2023-11-22T01:35:10;5.70;86.60
24678;DHT22;12800;53.094;8.778;2023-11-22T01:37:36;5.60;86.50
24678;DHT22;12800;53.094;8.778;2023-11-22T01:40:02;5.60;86.60
24678;DHT22;12800;53.094;8.778;2023-11-22T01:42:29;5.60;86.80
24678;DHT22;12800;53.094;8.778;2023-11-22T01:44:55;5.60;86.80
24678;DHT22;12800;53.094;8.778;2023-11-22T01:47:21;5.60;86.70
24678;DHT22;12800;53.094;8.778;2023-11-22T01:49:47;5.60;86.60
24678;DHT22;12800;53.094;8.778;2023-11-22T01:52:13;5.50;86.60
24678;DHT22;12800;53.094;8.778;2023-11-22T01:54:40;5.50;86.60
24678;DHT22;12800;53.094;8.778;2023-11-22T01:57:06;5.40;86.60
24678;DHT22;12800;53.094;8.778;2023-11-22T01:59:34;5.40;86.70
24678;DHT22;12800;53.094;8.778;2023-11-22T02:02:00;5.40;86.90
24678;DHT22;12800;53.094;8.778;2023-11-22T02:04:26;5.40;86.90
24678;DHT22;12800;53.094;8.778;2023-11-22T02:06:52;5.40;87.00
24678;DHT22;12800;53.094;8.778;2023-11-22T02:09:17;5.30;86.90
24678;DHT22;12800;53.094;8.778;2023-11-22T02:11:44;5.30;87.00
24678;DHT22;12800;53.094;8.778;2023-11-22T02:14:14;5.30;87.10
24678;DHT22;12800;53.094;8.778;2023-11-22T02:16:41;5.30;87.10
24678;DHT22;12800;53.094;8.778;2023-11-22T02:19:08;5.30;87.00
24678;DHT22;12800;53.094;8.778;2023-11-22T02:21:37;5.20;86.80
24678;DHT22;12800;53.094;8.778;2023-11-22T02:24:03;5.20;86.90
24678;DHT22;12800;53.094;8.778;2023-11-22T02:26:28;5.20;87.10
24678;DHT22;12800;53.094;8.778;2023-11-22T02:28:55;5.20;87.10
24678;DHT22;12800;53.094;8.778;2023-11-22T02:31:21;5.20;87.20
24678;DHT22;12800;53.094;8.778;2023-11-22T02:33:46;5.20;87.20
24678;DHT22;12800;53.094;8.778;2023-11-22T02:36:12;5.20;87.00
24678;DHT22;12800;53.094;8.778;2023-11-22T02:38:38;5.10;87.00
24678;DHT22;12800;53.094;8.778;2023-11-22T02:41:04;5.10;87.10
24678;DHT22;12800;53.094;8.778;2023-11-22T02:43:30;5.10;87.20
24678;DHT22;12800;53.094;8.778;2023-11-22T02:45:56;5.10;87.20
24678;DHT22;12800;53.094;8.778;2023-11-22T02:48:21;5.10;87.30
24678;DHT22;12800;53.094;8.778;2023-11-22T02:50:48;5.10;87.40
24678;DHT22;12800;53.094;8.778;2023-11-22T02:53:14;5.10;87.40
24678;DHT22;12800;53.094;8.778;2023-11-22T02:55:40;5.10;87.30
24678;DHT22;12800;53.094;8.778;2023-11-22T02:58:06;5.10;87.30
24678;DHT22;12800;53.094;8.778;2023-11-22T03:00:32;5.00;87.30
24678;DHT22;12800;53.094;8.778;2023-11-22T03:03:00;5.10;87.30
24678;DHT22;12800;53.094;8.778;2023-11-22T03:05:26;5.00;87.20
24678;DHT22;12800;53.094;8.778;2023-11-22T03:07:51;5.00;87.20
24678;DHT22;12800;53.094;8.778;2023-11-22T03:10:17;5.00;88.10
24678;DHT22;12800;53.094;8.778;2023-11-22T03:12:43;4.90;87.20
24678;DHT22;12800;53.094;8.778;2023-11-22T03:15:09;4.90;87.10
24678;DHT22;12800;53.094;8.778;2023-11-22T03:17:36;4.90;87.20
24678;DHT22;12800;53.094;8.778;2023-11-22T03:20:04;4.90;87.30
24678;DHT22;12800;53.094;8.778;2023-11-22T03:22:34;4.90;87.50
24678;DHT22;12800;53.094;8.778;2023-11-22T03:25:05;4.90;87.50
24678;DHT22;12800;53.094;8.778;2023-11-22T03:27:37;4.90;87.50
24678;DHT22;12800;53.094;8.778;2023-11-22T03:30:06;4.90;87.60
24678;DHT22;12800;53.094;8.778;2023-11-22T03:32:38;4.90;87.50
24678;DHT22;12800;53.094;8.778;2023-11-22T03:35:06;4.90;87.50
24678;DHT22;12800;53.094;8.778;2023-11-22T03:37:38;4.90;87.70
24678;DHT22;12800;53.094;8.778;2023-11-22T03:40:04;4.90;87.70
24678;DHT22;12800;53.094;8.778;2023-11-22T03:42:30;4.90;87.70
24678;DHT22;12800;53.094;8.778;2023-11-22T03:44:55;4.90;87.70
24678;DHT22;12800;53.094;8.778;2023-11-22T03:47:22;4.90;87.70
24678;DHT22;12800;53.094;8.778;2023-11-22T03:49:47;4.90;87.70
24678;DHT22;12800;53.094;8.778;2023-11-22T03:52:13;4.90;87.70
24678;DHT22;12800;53.094;8.778;2023-11-22T03:54:41;4.90;87.70
24678;DHT22;12800;53.094;8.778;2023-11-22T03:57:06;4.90;87.80
24678;DHT22;12800;53.094;8.778;2023-11-22T03:59:34;4.90;87.60
24678;DHT22;12800;53.094;8.778;2023-11-22T04:02:00;4.90;87.70
24678;DHT22;12800;53.094;8.778;2023-11-22T04:04:25;4.90;87.70
24678;DHT22;12800;53.094;8.778;2023-11-22T04:06:51;4.80;87.50
24678;DHT22;12800;53.094;8.778;2023-11-22T04:09:18;4.80;87.40
24678;DHT22;12800;53.094;8.778;2023-11-22T04:11:44;4.80;87.40
24678;DHT22;12800;53.094;8.778;2023-11-22T04:14:09;4.80;87.50
24678;DHT22;12800;53.094;8.778;2023-11-22T04:16:35;4.70;87.50
24678;DHT22;12800;53.094;8.778;2023-11-22T04:19:01;4.70;87.40
24678;DHT22;12800;53.094;8.778;2023-11-22T04:21:27;4.70;87.30
24678;DHT22;12800;53.094;8.778;2023-11-22T04:23:53;4.70;87.50
24678;DHT22;12800;53.094;8.778;2023-11-22T04:26:19;4.60;87.40
24678;DHT22;12800;53.094;8.778;2023-11-22T04:28:48;4.60;87.60
24678;DHT22;12800;53.094;8.778;2023-11-22T04:31:14;4.60;87.60
24678;DHT22;12800;53.094;8.778;2023-11-22T04:33:42;4.60;87.60
24678;DHT22;12800;53.094;8.778;2023-11-22T04:36:14;4.60;87.60
24678;DHT22;12800;53.094;8.778;2023-11-22T04:38:43;4.50;87.60
24678;DHT22;12800;53.094;8.778;2023-11-22T04:41:10;4.50;87.60
24678;DHT22;12800;53.094;8.778;2023-11-22T04:43:42;4.50;87.60
24678;DHT22;12800;53.094;8.778;2023-11-22T04:46:10;4.50;87.80
24678;DHT22;12800;53.094;8.778;2023-11-22T04:48:36;4.50;87.80
24678;DHT22;12800;53.094;8.778;2023-11-22T04:51:05;4.50;87.80
24678;DHT22;12800;53.094;8.778;2023-11-22T04:53:31;4.50;87.70
24678;DHT22;12800;53.094;8.778;2023-11-22T04:55:57;4.50;87.80
24678;DHT22;12800;53.094;8.778;2023-11-22T04:58:24;4.50;87.80
24678;DHT22;12800;53.094;8.778;2023-11-22T05:00:50;4.50;87.80
24678;DHT22;12800;53.094;8.778;2023-11-22T05:03:15;4.40;87.70
24678;DHT22;12800;53.094;8.778;2023-11-22T05:05:44;4.40;87.70
24678;DHT22;12800;53.094;8.778;2023-11-22T05:08:10;4.40;87.80
24678;DHT22;12800;53.094;8.778;2023-11-22T05:10:36;4.40;87.70
24678;DHT22;12800;53.094;8.778;2023-11-22T05:13:01;4.40;87.70
24678;DHT22;12800;53.094;8.778;2023-11-22T05:15:29;4.40;87.70
24678;DHT22;12800;53.094;8.778;2023-11-22T05:17:55;4.40;87.60
24678;DHT22;12800;53.094;8.778;2023-11-22T05:20:23;4.30;87.60
24678;DHT22;12800;53.094;8.778;2023-11-22T05:23:06;4.30;87.60
24678;DHT22;12800;53.094;8.778;2023-11-22T05:25:35;4.30;87.60
24678;DHT22;12800;53.094;8.778;2023-11-22T05:28:01;4.30;87.60
24678;DHT22;12800;53.094;8.778;2023-11-22T05:30:27;4.30;87.60
24678;DHT22;12800;53.094;8.778;2023-11-22T05:32:57;4.30;87.70
24678;DHT22;12800;53.094;8.778;2023-11-22T05:35:33;4.30;87.80
24678;DHT22;12800;53.094;8.778;2023-11-22T05:38:02;4.20;87.70
24678;DHT22;12800;53.094;8.778;2023-11-22T05:40:28;4.20;87.80
24678;DHT22;12800;53.094;8.778;2023-11-22T05:42:54;4.20;87.80
24678;DHT22;12800;53.094;8.778;2023-11-22T05:45:20;4.30;87.90
24678;DHT22;12800;53.094;8.778;2023-11-22T05:47:46;4.30;87.90
24678;DHT22;12800;53.094;8.778;2023-11-22T05:50:14;4.20;87.80
24678;DHT22;12800;53.094;8.778;2023-11-22T05:52:43;4.20;87.80
24678;DHT22;12800;53.094;8.778;2023-11-22T05:55:11;4.30;87.90
24678;DHT22;12800;53.094;8.778;2023-11-22T05:57:42;4.20;87.70
24678;DHT22;12800;53.094;8.778;2023-11-22T06:00:08;4.20;87.80
24678;DHT22;12800;53.094;8.778;2023-11-22T06:02:34;4.20;87.80
24678;DHT22;12800;53.094;8.778;2023-11-22T06:05:00;4.20;87.80
24678;DHT22;12800;53.094;8.778;2023-11-22T06:07:26;4.20;87.80
24678;DHT22;12800;53.094;8.778;2023-11-22T06:09:52;4.20;87.80
24678;DHT22;12800;53.094;8.778;2023-11-22T06:12:18;4.20;87.80
24678;DHT22;12800;53.094;8.778;2023-11-22T06:14:46;4.20;87.80
24678;DHT22;12800;53.094;8.778;2023-11-22T06:17:12;4.20;87.80
24678;DHT22;12800;53.094;8.778;2023-11-22T06:19:38;4.20;87.80
24678;DHT22;12800;53.094;8.778;2023-11-22T06:22:03;4.20;87.80
24678;DHT22;12800;53.094;8.778;2023-11-22T06:24:29;4.20;87.90
24678;DHT22;12800;53.094;8.778;2023-11-22T06:26:56;4.20;87.90
24678;DHT22;12800;53.094;8.778;2023-11-22T06:29:22;4.20;87.80
24678;DHT22;12800;53.094;8.778;2023-11-22T06:31:47;4.20;87.90
24678;DHT22;12800;53.094;8.778;2023-11-22T06:34:13;4.20;88.00
24678;DHT22;12800;53.094;8.778;2023-11-22T06:36:39;4.20;88.00
24678;DHT22;12800;53.094;8.778;2023-11-22T06:39:04;4.20;88.00
24678;DHT22;12800;53.094;8.778;2023-11-22T06:41:34;4.30;88.00
24678;DHT22;12800;53.094;8.778;2023-11-22T06:44:02;4.30;88.00
24678;DHT22;12800;53.094;8.778;2023-11-22T06:46:28;4.30;88.10
24678;DHT22;12800;53.094;8.778;2023-11-22T06:48:54;4.30;88.20
24678;DHT22;12800;53.094;8.778;2023-11-22T06:51:21;4.30;88.30
24678;DHT22;12800;53.094;8.778;2023-11-22T06:53:47;4.30;88.30
24678;DHT22;12800;53.094;8.778;2023-11-22T06:56:13;4.30;88.40
24678;DHT22;12800;53.094;8.778;2023-11-22T06:58:39;4.40;88.40
24678;DHT22;12800;53.094;8.778;2023-11-22T07:01:06;4.40;88.40
24678;DHT22;12800;53.094;8.778;2023-11-22T07:03:32;4.40;88.40
24678;DHT22;12800;53.094;8.778;2023-11-22T07:05:58;4.50;88.40
24678;DHT22;12800;53.094;8.778;2023-11-22T07:08:24;4.50;88.50
24678;DHT22;12800;53.094;8.778;2023-11-22T07:10:52;4.60;88.60
24678;DHT22;12800;53.094;8.778;2023-11-22T07:13:18;4.60;88.60
24678;DHT22;12800;53.094;8.778;2023-11-22T07:15:43;4.60;88.40
24678;DHT22;12800;53.094;8.778;2023-11-22T07:18:09;4.60;88.40
24678;DHT22;12800;53.094;8.778;2023-11-22T07:20:35;4.70;88.50
24678;DHT22;12800;53.094;8.778;2023-11-22T07:23:01;4.70;88.40
24678;DHT22;12800;53.094;8.778;2023-11-22T07:25:27;4.70;88.30
24678;DHT22;12800;53.094;8.778;2023-11-22T07:27:54;4.70;88.30
24678;DHT22;12800;53.094;8.778;2023-11-22T07:30:20;4.70;88.20
24678;DHT22;12800;53.094;8.778;2023-11-22T07:32:51;4.80;88.20
24678;DHT22;12800;53.094;8.778;2023-11-22T07:35:19;4.80;88.20
24678;DHT22;12800;53.094;8.778;2023-11-22T07:37:46;4.80;88.20
24678;DHT22;12800;53.094;8.778;2023-11-22T07:40:13;4.80;88.20
24678;DHT22;12800;53.094;8.778;2023-11-22T07:42:40;4.80;88.20
24678;DHT22;12800;53.094;8.778;2023-11-22T07:45:06;4.80;88.20
24678;DHT22;12800;53.094;8.778;2023-11-22T07:47:32;4.80;88.20
24678;DHT22;12800;53.094;8.778;2023-11-22T07:49:58;4.90;88.10
24678;DHT22;12800;53.094;8.778;2023-11-22T07:52:24;4.90;88.10
24678;DHT22;12800;53.094;8.778;2023-11-22T07:54:56;4.90;88.10
24678;DHT22;12800;53.094;8.778;2023-11-22T07:57:22;4.90;88.10
24678;DHT22;12800;53.094;8.778;2023-11-22T07:59:49;5.00;88.20
24678;DHT22;12800;53.094;8.778;2023-11-22T08:02:15;5.00;88.10
24678;DHT22;12800;53.094;8.778;2023-11-22T08:04:44;5.00;88.10
24678;DHT22;12800;53.094;8.778;2023-11-22T08:07:10;5.00;88.10
24678;DHT22;12800;53.094;8.778;2023-11-22T08:09:41;5.00;88.10
24678;DHT22;12800;53.094;8.778;2023-11-22T08:12:07;5.10;88.10
24678;DHT22;12800;53.094;8.778;2023-11-22T08:14:33;5.10;88.00
24678;DHT22;12800;53.094;8.778;2023-11-22T08:16:59;5.20;88.10
24678;DHT22;12800;53.094;8.778;2023-11-22T08:19:24;5.20;88.10
24678;DHT22;12800;53.094;8.778;2023-11-22T08:21:50;5.20;88.00
24678;DHT22;12800;53.094;8.778;2023-11-22T08:24:16;5.30;87.90
24678;DHT22;12800;53.094;8.778;2023-11-22T08:26:44;5.40;87.90
24678;DHT22;12800;53.094;8.778;2023-11-22T08:29:10;5.40;87.80
24678;DHT22;12800;53.094;8.778;2023-11-22T08:31:37;5.50;87.60
24678;DHT22;12800;53.094;8.778;2023-11-22T08:34:02;5.50;87.50
24678;DHT22;12800;53.094;8.778;2023-11-22T08:36:32;5.60;87.40
24678;DHT22;12800;53.094;8.778;2023-11-22T08:39:00;5.60;87.30
24678;DHT22;12800;53.094;8.778;2023-11-22T08:41:29;5.60;87.30
24678;DHT22;12800;53.094;8.778;2023-11-22T08:43:56;5.60;87.10
24678;DHT22;12800;53.094;8.778;2023-11-22T08:46:22;5.70;87.00
24678;DHT22;12800;53.094;8.778;2023-11-22T08:48:49;5.70;87.00
24678;DHT22;12800;53.094;8.778;2023-11-22T08:51:15;5.70;86.80
24678;DHT22;12800;53.094;8.778;2023-11-22T08:53:40;5.80;86.80
24678;DHT22;12800;53.094;8.778;2023-11-22T08:56:06;5.80;86.60
24678;DHT22;12800;53.094;8.778;2023-11-22T08:58:34;5.90;86.40
24678;DHT22;12800;53.094;8.778;2023-11-22T09:01:00;6.00;86.40
24678;DHT22;12800;53.094;8.778;2023-11-22T09:03:25;6.00;86.10
24678;DHT22;12800;53.094;8.778;2023-11-22T09:05:52;6.00;85.70
24678;DHT22;12800;53.094;8.778;2023-11-22T09:08:19;6.10;85.40
24678;DHT22;12800;53.094;8.778;2023-11-22T09:10:46;6.10;85.10
24678;DHT22;12800;53.094;8.778;2023-11-22T09:13:12;6.10;84.90
24678;DHT22;12800;53.094;8.778;2023-11-22T09:15:42;6.20;84.80
24678;DHT22;12800;53.094;8.778;2023-11-22T09:18:10;6.20;84.70
24678;DHT22;12800;53.094;8.778;2023-11-22T09:20:35;6.20;84.40
24678;DHT22;12800;53.094;8.778;2023-11-22T09:23:01;6.30;84.10
24678;DHT22;12800;53.094;8.778;2023-11-22T09:25:30;6.30;83.90
24678;DHT22;12800;53.094;8.778;2023-11-22T09:27:57;6.30;83.80
24678;DHT22;12800;53.094;8.778;2023-11-22T09:30:31;6.40;83.60
24678;DHT22;12800;53.094;8.778;2023-11-22T09:33:12;6.40;83.40
24678;DHT22;12800;53.094;8.778;2023-11-22T09:35:41;6.40;83.20
24678;DHT22;12800;53.094;8.778;2023-11-22T09:38:09;6.50;83.10
24678;DHT22;12800;53.094;8.778;2023-11-22T09:40:41;6.50;82.90
24678;DHT22;12800;53.094;8.778;2023-11-22T09:43:07;6.50;82.60
24678;DHT22;12800;53.094;8.778;2023-11-22T09:45:32;6.50;82.60
24678;DHT22;12800;53.094;8.778;2023-11-22T09:47:59;6.60;82.50
24678;DHT22;12800;53.094;8.778;2023-11-22T09:53:34;6.60;81.80
24678;DHT22;12800;53.094;8.778;2023-11-22T09:56:01;6.70;81.60
24678;DHT22;12800;53.094;8.778;2023-11-22T09:58:31;6.70;82.10
24678;DHT22;12800;53.094;8.778;2023-11-22T10:00:59;6.70;81.20
24678;DHT22;12800;53.094;8.778;2023-11-22T10:03:26;6.80;81.00
24678;DHT22;12800;53.094;8.778;2023-11-22T10:05:57;6.80;80.50
24678;DHT22;12800;53.094;8.778;2023-11-22T10:08:26;6.80;80.20
24678;DHT22;12800;53.094;8.778;2023-11-22T10:10:53;6.90;80.20
24678;DHT22;12800;53.094;8.778;2023-11-22T10:13:20;6.90;80.20
24678;DHT22;12800;53.094;8.778;2023-11-22T10:15:51;6.90;79.90
24678;DHT22;12800;53.094;8.778;2023-11-22T10:18:19;6.90;79.80
24678;DHT22;12800;53.094;8.778;2023-11-22T10:20:46;6.90;80.60
24678;DHT22;12800;53.094;8.778;2023-11-22T10:23:14;7.00;79.50
24678;DHT22;12800;53.094;8.778;2023-11-22T10:25:47;7.00;79.20
24678;DHT22;12800;53.094;8.778;2023-11-22T10:28:18;7.00;78.60
24678;DHT22;12800;53.094;8.778;2023-11-22T10:30:49;7.00;78.70
24678;DHT22;12800;53.094;8.778;2023-11-22T10:33:18;7.10;79.00
24678;DHT22;12800;53.094;8.778;2023-11-22T10:35:50;7.10;78.90
24678;DHT22;12800;53.094;8.778;2023-11-22T10:38:19;7.20;78.30
24678;DHT22;12800;53.094;8.778;2023-11-22T10:40:45;7.20;77.90
24678;DHT22;12800;53.094;8.778;2023-11-22T10:43:12;7.20;77.90
24678;DHT22;12800;53.094;8.778;2023-11-22T10:45:38;7.30;77.40
24678;DHT22;12800;53.094;8.778;2023-11-22T10:48:07;7.30;76.90
24678;DHT22;12800;53.094;8.778;2023-11-22T10:50:34;7.30;77.00
24678;DHT22;12800;53.094;8.778;2023-11-22T10:53:01;7.30;77.10
24678;DHT22;12800;53.094;8.778;2023-11-22T10:55:31;7.40;77.20
24678;DHT22;12800;53.094;8.778;2023-11-22T10:58:03;7.40;77.20
24678;DHT22;12800;53.094;8.778;2023-11-22T11:00:31;7.40;77.20
24678;DHT22;12800;53.094;8.778;2023-11-22T11:03:18;7.50;76.90
24678;DHT22;12800;53.094;8.778;2023-11-22T11:05:54;7.50;76.90
24678;DHT22;12800;53.094;8.778;2023-11-22T11:08:25;7.50;76.50
24678;DHT22;12800;53.094;8.778;2023-11-22T11:10:53;7.50;76.40
24678;DHT22;12800;53.094;8.778;2023-11-22T11:13:21;7.50;76.20
24678;DHT22;12800;53.094;8.778;2023-11-22T11:15:47;7.50;76.10
24678;DHT22;12800;53.094;8.778;2023-11-22T11:18:15;7.50;75.80
24678;DHT22;12800;53.094;8.778;2023-11-22T11:20:55;7.60;75.60
24678;DHT22;12800;53.094;8.778;2023-11-22T11:23:22;7.60;75.40
24678;DHT22;12800;53.094;8.778;2023-11-22T11:25:51;7.60;75.00
24678;DHT22;12800;53.094;8.778;2023-11-22T11:28:17;7.60;74.80
24678;DHT22;12800;53.094;8.778;2023-11-22T11:30:47;7.60;74.50
24678;DHT22;12800;53.094;8.778;2023-11-22T11:33:15;7.60;74.00
24678;DHT22;12800;53.094;8.778;2023-11-22T11:35:49;7.60;73.80
24678;DHT22;12800;53.094;8.778;2023-11-22T11:38:17;7.60;73.80
24678;DHT22;12800;53.094;8.778;2023-11-22T11:40:48;7.60;73.40
24678;DHT22;12800;53.094;8.778;2023-11-22T11:43:14;7.60;73.30
24678;DHT22;12800;53.094;8.778;2023-11-22T11:45:42;7.70;72.90
24678;DHT22;12800;53.094;8.778;2023-11-22T11:48:18;7.70;73.50
24678;DHT22;12800;53.094;8.778;2023-11-22T11:50:46;7.70;72.50
24678;DHT22;12800;53.094;8.778;2023-11-22T11:53:12;7.60;72.50
24678;DHT22;12800;53.094;8.778;2023-11-22T11:55:38;7.70;72.50
24678;DHT22;12800;53.094;8.778;2023-11-22T11:58:07;7.70;72.40
24678;DHT22;12800;53.094;8.778;2023-11-22T12:00:38;7.70;72.00
24678;DHT22;12800;53.094;8.778;2023-11-22T12:03:06;7.70;71.40
24678;DHT22;12800;53.094;8.778;2023-11-22T12:05:33;7.70;71.20
24678;DHT22;12800;53.094;8.778;2023-11-22T12:07:58;7.70;71.20
24678;DHT22;12800;53.094;8.778;2023-11-22T12:10:24;7.80;70.90
24678;DHT22;12800;53.094;8.778;2023-11-22T12:12:50;7.80;70.40
24678;DHT22;12800;53.094;8.778;2023-11-22T12:15:16;7.80;70.60
24678;DHT22;12800;53.094;8.778;2023-11-22T12:17:41;7.80;70.00
24678;DHT22;12800;53.094;8.778;2023-11-22T12:20:11;7.80;69.40
24678;DHT22;12800;53.094;8.778;2023-11-22T12:22:39;7.80;69.20
24678;DHT22;12800;53.094;8.778;2023-11-22T12:25:06;7.80;69.00
24678;DHT22;12800;53.094;8.778;2023-11-22T12:27:32;7.90;68.60
24678;DHT22;12800;53.094;8.778;2023-11-22T12:29:58;7.90;68.40
24678;DHT22;12800;53.094;8.778;2023-11-22T12:32:24;7.90;68.20
24678;DHT22;12800;53.094;8.778;2023-11-22T12:34:51;7.90;67.90
24678;DHT22;12800;53.094;8.778;2023-11-22T12:37:21;8.00;68.50
24678;DHT22;12800;53.094;8.778;2023-11-22T12:39:50;8.00;68.60
24678;DHT22;12800;53.094;8.778;2023-11-22T12:42:18;8.00;68.40
24678;DHT22;12800;53.094;8.778;2023-11-22T12:44:48;8.00;67.70
24678;DHT22;12800;53.094;8.778;2023-11-22T12:47:14;8.00;67.60
24678;DHT22;12800;53.094;8.778;2023-11-22T12:49:47;8.00;67.00
24678;DHT22;12800;53.094;8.778;2023-11-22T12:52:13;8.00;66.60
24678;DHT22;12800;53.094;8.778;2023-11-22T12:54:39;7.90;66.30
24678;DHT22;12800;53.094;8.778;2023-11-22T12:57:10;7.90;66.30
24678;DHT22;12800;53.094;8.778;2023-11-22T12:59:38;7.90;66.20
24678;DHT22;12800;53.094;8.778;2023-11-22T13:02:06;8.00;66.60
24678;DHT22;12800;53.094;8.778;2023-11-22T13:04:32;8.00;66.70
24678;DHT22;12800;53.094;8.778;2023-11-22T13:06:59;8.00;66.00
24678;DHT22;12800;53.094;8.778;2023-11-22T13:09:25;8.00;65.90
24678;DHT22;12800;53.094;8.778;2023-11-22T13:11:51;7.90;65.60
24678;DHT22;12800;53.094;8.778;2023-11-22T13:14:17;7.90;65.30
24678;DHT22;12800;53.094;8.778;2023-11-22T13:16:44;7.90;65.50
24678;DHT22;12800;53.094;8.778;2023-11-22T13:19:10;7.90;65.60
24678;DHT22;12800;53.094;8.778;2023-11-22T13:21:36;7.90;65.80
24678;DHT22;12800;53.094;8.778;2023-11-22T13:24:02;7.80;65.60
24678;DHT22;12800;53.094;8.778;2023-11-22T13:26:29;7.80;65.50
24678;DHT22;12800;53.094;8.778;2023-11-22T13:28:55;7.80;64.90
24678;DHT22;12800;53.094;8.778;2023-11-22T13:31:26;7.70;64.90
24678;DHT22;12800;53.094;8.778;2023-11-22T13:34:17;7.70;64.50
24678;DHT22;12800;53.094;8.778;2023-11-22T13:37:13;7.70;64.70
24678;DHT22;12800;53.094;8.778;2023-11-22T13:39:53;7.60;64.60
24678;DHT22;12800;53.094;8.778;2023-11-22T13:43:16;7.60;64.80
24678;DHT22;12800;53.094;8.778;2023-11-22T13:46:23;7.60;65.20
24678;DHT22;12800;53.094;8.778;2023-11-22T13:49:18;7.50;65.30
24678;DHT22;12800;53.094;8.778;2023-11-22T13:51:51;7.50;65.50
24678;DHT22;12800;53.094;8.778;2023-11-22T13:54:26;7.50;65.90
24678;DHT22;12800;53.094;8.778;2023-11-22T13:56:56;7.50;66.10
24678;DHT22;12800;53.094;8.778;2023-11-22T14:02:54;7.40;66.30
24678;DHT22;12800;53.094;8.778;2023-11-22T14:06:05;7.40;66.10
24678;DHT22;12800;53.094;8.778;2023-11-22T14:09:17;7.40;65.80
24678;DHT22;12800;53.094;8.778;2023-11-22T14:22:28;7.20;65.30
24678;DHT22;12800;53.094;8.778;2023-11-22T14:25:03;7.20;65.90
24678;DHT22;12800;53.094;8.778;2023-11-22T14:27:49;7.20;65.90
24678;DHT22;12800;53.094;8.778;2023-11-22T14:33:56;7.10;66.30
24678;DHT22;12800;53.094;8.778;2023-11-22T14:40:22;7.10;66.90
24678;DHT22;12800;53.094;8.778;2023-11-22T14:43:23;7.10;66.80
24678;DHT22;12800;53.094;8.778;2023-11-22T14:46:36;7.10;67.00
24678;DHT22;12800;53.094;8.778;2023-11-22T14:53:14;7.10;67.50
24678;DHT22;12800;53.094;8.778;2023-11-22T14:59:54;7.10;68.10
24678;DHT22;12800;53.094;8.778;2023-11-22T15:02:58;7.00;68.00
24678;DHT22;12800;53.094;8.778;2023-11-22T15:05:38;7.00;68.10
24678;DHT22;12800;53.094;8.778;2023-11-22T15:08:29;7.00;68.40
24678;DHT22;12800;53.094;8.778;2023-11-22T15:14:43;7.00;68.60
24678;DHT22;12800;53.094;8.778;2023-11-22T15:21:27;6.90;68.70
24678;DHT22;12800;53.094;8.778;2023-11-22T15:24:40;6.90;68.70
24678;DHT22;12800;53.094;8.778;2023-11-22T15:27:22;6.80;69.00
24678;DHT22;12800;53.094;8.778;2023-11-22T15:30:17;6.70;69.50
24678;DHT22;12800;53.094;8.778;2023-11-22T15:33:21;6.80;69.70
24678;DHT22;12800;53.094;8.778;2023-11-22T15:36:49;6.80;69.80
24678;DHT22;12800;53.094;8.778;2023-11-22T15:40:47;6.70;70.00
24678;DHT22;12800;53.094;8.778;2023-11-22T15:47:50;6.70;70.50
24678;DHT22;12800;53.094;8.778;2023-11-22T15:54:47;6.70;71.00
24678;DHT22;12800;53.094;8.778;2023-11-22T15:58:05;6.60;71.00
24678;DHT22;12800;53.094;8.778;2023-11-22T16:11:21;6.60;71.30
24678;DHT22;12800;53.094;8.778;2023-11-22T16:24:53;6.60;71.90
24678;DHT22;12800;53.094;8.778;2023-11-22T16:27:23;6.60;71.90
24678;DHT22;12800;53.094;8.778;2023-11-22T16:30:32;6.60;72.20
24678;DHT22;12800;53.094;8.778;2023-11-22T16:34:00;6.70;72.00
24678;DHT22;12800;53.094;8.778;2023-11-22T16:37:24;6.70;71.90
24678;DHT22;12800;53.094;8.778;2023-11-22T16:44:30;6.60;72.00
24678;DHT22;12800;53.094;8.778;2023-11-22T16:51:01;6.70;72.00
24678;DHT22;12800;53.094;8.778;2023-11-22T16:54:31;6.70;71.90
24678;DHT22;12800;53.094;8.778;2023-11-22T16:57:41;6.70;71.80
24678;DHT22;12800;53.094;8.778;2023-11-22T17:03:25;6.70;71.70
24678;DHT22;12800;53.094;8.778;2023-11-22T17:06:45;6.70;71.50
24678;DHT22;12800;53.094;8.778;2023-11-22T17:09:14;6.70;71.40
24678;DHT22;12800;53.094;8.778;2023-11-22T17:11:41;6.70;71.60
24678;DHT22;12800;53.094;8.778;2023-11-22T17:14:45;6.70;71.30
24678;DHT22;12800;53.094;8.778;2023-11-22T17:17:20;6.70;71.30
24678;DHT22;12800;53.094;8.778;2023-11-22T17:20:12;6.70;71.50
24678;DHT22;12800;53.094;8.778;2023-11-22T17:22:46;6.70;71.60
24678;DHT22;12800;53.094;8.778;2023-11-22T17:25:20;6.70;71.70
24678;DHT22;12800;53.094;8.778;2023-11-22T17:28:16;6.70;71.80
24678;DHT22;12800;53.094;8.778;2023-11-22T17:34:40;6.70;72.90
24678;DHT22;12800;53.094;8.778;2023-11-22T17:38:05;6.70;73.70
24678;DHT22;12800;53.094;8.778;2023-11-22T17:41:50;6.70;74.20
24678;DHT22;12800;53.094;8.778;2023-11-22T17:59:40;6.60;75.50
24678;DHT22;12800;53.094;8.778;2023-11-22T18:47:42;6.50;75.50
24678;DHT22;12800;53.094;8.778;2023-11-22T18:54:49;6.50;75.30
24678;DHT22;12800;53.094;8.778;2023-11-22T19:11:33;6.60;74.90